createdAt,value
2017-12-31T00:00:29.152Z,0
2017-12-31T00:01:09.715Z,0
2017-12-31T00:01:50.299Z,0
2017-12-31T00:02:30.841Z,0
2017-12-31T00:03:11.406Z,0
2017-12-31T00:03:51.987Z,0
2017-12-31T00:04:32.545Z,0
2017-12-31T00:05:13.051Z,0
2017-12-31T00:05:53.608Z,0
2017-12-31T00:06:34.173Z,0
2017-12-31T00:07:14.762Z,0
2017-12-31T00:07:55.286Z,0
2017-12-31T00:08:35.858Z,0
2017-12-31T00:09:16.399Z,0
2017-12-31T00:09:56.934Z,0
2017-12-31T00:10:37.489Z,0
2017-12-31T00:11:18.038Z,0
2017-12-31T00:11:58.564Z,0
2017-12-31T00:12:39.111Z,0
2017-12-31T00:13:19.655Z,0
2017-12-31T00:14:00.200Z,0
2017-12-31T00:14:40.764Z,0
2017-12-31T00:15:21.323Z,0
2017-12-31T00:16:01.877Z,0
2017-12-31T00:16:42.437Z,0
2017-12-31T00:17:22.971Z,0
2017-12-31T00:18:03.509Z,0
2017-12-31T00:18:44.064Z,0
2017-12-31T00:19:24.617Z,0
2017-12-31T00:20:05.178Z,0
2017-12-31T00:20:45.708Z,0
2017-12-31T00:21:26.267Z,0
2017-12-31T00:22:06.824Z,0
2017-12-31T00:22:47.379Z,0
2017-12-31T00:23:27.946Z,0
2017-12-31T00:24:08.489Z,0
2017-12-31T00:24:49.034Z,0
2017-12-31T00:25:29.580Z,0
2017-12-31T00:26:10.127Z,0
2017-12-31T00:26:50.720Z,0
2017-12-31T00:27:31.234Z,0
2017-12-31T00:28:11.781Z,0
2017-12-31T00:28:52.362Z,0
2017-12-31T00:29:32.904Z,0
2017-12-31T00:30:13.466Z,0
2017-12-31T00:30:54.032Z,0
2017-12-31T00:31:34.567Z,0
2017-12-31T00:32:15.104Z,0
2017-12-31T00:32:55.662Z,0
2017-12-31T00:33:36.195Z,0
2017-12-31T00:34:16.770Z,0
2017-12-31T00:34:57.312Z,0
2017-12-31T00:35:37.891Z,0
2017-12-31T00:36:18.459Z,0
2017-12-31T00:36:58.989Z,0
2017-12-31T00:37:39.520Z,0
2017-12-31T00:38:20.055Z,0
2017-12-31T00:39:00.604Z,0
2017-12-31T00:39:41.193Z,0
2017-12-31T00:40:21.731Z,0
2017-12-31T00:41:02.306Z,0
2017-12-31T00:41:42.855Z,0
2017-12-31T00:42:23.403Z,0
2017-12-31T00:43:03.945Z,0
2017-12-31T00:43:44.485Z,0
2017-12-31T00:44:25.046Z,0
2017-12-31T00:45:05.606Z,0
2017-12-31T00:45:46.155Z,0
2017-12-31T00:46:26.721Z,0
2017-12-31T00:47:07.295Z,0
2017-12-31T00:47:47.845Z,0
2017-12-31T00:48:28.399Z,0
2017-12-31T00:49:08.973Z,0
2017-12-31T00:49:49.496Z,0
2017-12-31T00:50:30.021Z,0
2017-12-31T00:51:10.596Z,0
2017-12-31T00:51:51.151Z,0
2017-12-31T00:52:31.698Z,0
2017-12-31T00:53:12.253Z,0
2017-12-31T00:53:52.812Z,0
2017-12-31T00:54:33.369Z,0
2017-12-31T00:55:13.919Z,0
2017-12-31T00:55:54.463Z,0
2017-12-31T00:56:35.010Z,0
2017-12-31T00:57:15.578Z,0
2017-12-31T00:57:56.125Z,0
2017-12-31T00:58:36.698Z,0
2017-12-31T00:59:17.214Z,0
2017-12-31T00:59:57.787Z,0
2017-12-31T01:00:38.390Z,0
2017-12-31T01:01:18.886Z,0
2017-12-31T01:01:59.421Z,0
2017-12-31T01:02:39.946Z,0
2017-12-31T01:03:20.500Z,0
2017-12-31T01:04:01.056Z,0
2017-12-31T01:04:41.585Z,0
2017-12-31T01:05:22.145Z,0
2017-12-31T01:06:02.708Z,0
2017-12-31T01:06:43.283Z,0
2017-12-31T01:07:23.835Z,0
2017-12-31T01:08:04.403Z,0
2017-12-31T01:08:44.969Z,0
2017-12-31T01:09:25.509Z,0
2017-12-31T01:10:06.059Z,0
2017-12-31T01:10:46.602Z,0
2017-12-31T01:11:27.174Z,0
2017-12-31T01:12:07.706Z,0
2017-12-31T01:12:48.271Z,0
2017-12-31T01:13:28.818Z,0
2017-12-31T01:14:09.383Z,0
2017-12-31T01:14:49.914Z,0
2017-12-31T01:15:30.459Z,0
2017-12-31T01:16:11.012Z,0
2017-12-31T01:16:51.550Z,0
2017-12-31T01:17:32.084Z,0
2017-12-31T01:18:12.659Z,0
2017-12-31T01:18:53.189Z,0
2017-12-31T01:19:33.767Z,0
2017-12-31T01:20:14.335Z,0
2017-12-31T01:20:54.863Z,0
2017-12-31T01:21:35.411Z,0
2017-12-31T01:22:15.965Z,0
2017-12-31T01:22:56.526Z,0
2017-12-31T01:23:37.111Z,0
2017-12-31T01:24:17.663Z,0
2017-12-31T01:24:58.174Z,0
2017-12-31T01:25:38.730Z,0
2017-12-31T01:26:19.286Z,0
2017-12-31T01:26:59.844Z,0
2017-12-31T01:27:40.379Z,0
2017-12-31T01:28:20.907Z,0
2017-12-31T01:29:01.452Z,0
2017-12-31T01:29:41.983Z,0
2017-12-31T01:30:22.536Z,0
2017-12-31T01:31:03.105Z,0
2017-12-31T01:31:43.669Z,0
2017-12-31T01:32:24.224Z,0
2017-12-31T01:33:04.772Z,0
2017-12-31T01:33:45.311Z,0
2017-12-31T01:34:25.866Z,0
2017-12-31T01:35:06.411Z,0
2017-12-31T01:35:46.958Z,0
2017-12-31T01:36:27.505Z,0
2017-12-31T01:37:08.061Z,0
2017-12-31T01:37:48.629Z,0
2017-12-31T01:38:29.198Z,0
2017-12-31T01:39:09.735Z,0
2017-12-31T01:39:50.266Z,0
2017-12-31T01:40:30.809Z,0
2017-12-31T01:41:11.364Z,0
2017-12-31T01:41:51.926Z,0
2017-12-31T01:42:32.467Z,0
2017-12-31T01:43:13.018Z,0
2017-12-31T01:43:53.583Z,0
2017-12-31T01:44:34.146Z,0
2017-12-31T01:45:14.705Z,0
2017-12-31T01:45:55.245Z,0
2017-12-31T01:46:35.782Z,0
2017-12-31T01:47:16.338Z,0
2017-12-31T01:47:56.857Z,0
2017-12-31T01:48:37.422Z,0
2017-12-31T01:49:17.979Z,0
2017-12-31T01:49:58.523Z,0
2017-12-31T01:50:39.072Z,0
2017-12-31T01:51:19.598Z,0
2017-12-31T01:52:00.601Z,0
2017-12-31T01:52:41.054Z,0
2017-12-31T01:53:21.628Z,0
2017-12-31T01:54:02.307Z,0
2017-12-31T01:54:42.998Z,0
2017-12-31T01:55:23.580Z,0
2017-12-31T01:56:04.312Z,0
2017-12-31T01:56:44.820Z,0
2017-12-31T01:57:25.345Z,0
2017-12-31T01:58:06.047Z,0
2017-12-31T01:58:46.773Z,0
2017-12-31T01:59:27.260Z,0
2017-12-31T02:00:07.787Z,0
2017-12-31T02:00:48.361Z,0
2017-12-31T02:01:29.020Z,0
2017-12-31T02:02:09.505Z,0
2017-12-31T02:02:50.038Z,0
2017-12-31T02:03:30.639Z,0
2017-12-31T02:04:11.202Z,0
2017-12-31T02:04:51.741Z,0
2017-12-31T02:05:32.215Z,0
2017-12-31T02:06:12.797Z,0
2017-12-31T02:06:53.265Z,0
2017-12-31T02:07:33.827Z,0
2017-12-31T02:08:14.346Z,0
2017-12-31T02:08:54.899Z,0
2017-12-31T02:09:35.447Z,0
2017-12-31T02:10:16.019Z,0
2017-12-31T02:10:56.571Z,0
2017-12-31T02:11:37.135Z,0
2017-12-31T02:12:17.674Z,0
2017-12-31T02:12:58.213Z,0
2017-12-31T02:13:38.731Z,0
2017-12-31T02:14:19.263Z,0
2017-12-31T02:14:59.818Z,0
2017-12-31T02:15:40.384Z,0
2017-12-31T02:16:20.939Z,0
2017-12-31T02:17:01.460Z,0
2017-12-31T02:17:42.009Z,0
2017-12-31T02:18:22.562Z,0
2017-12-31T02:19:03.102Z,0
2017-12-31T02:19:43.671Z,0
2017-12-31T02:20:24.225Z,0
2017-12-31T02:21:04.786Z,0
2017-12-31T02:21:45.323Z,0
2017-12-31T02:22:25.881Z,0
2017-12-31T02:23:06.419Z,0
2017-12-31T02:23:46.988Z,0
2017-12-31T02:24:27.529Z,0
2017-12-31T02:25:08.082Z,0
2017-12-31T02:25:48.633Z,0
2017-12-31T02:26:29.171Z,0
2017-12-31T02:27:09.725Z,0
2017-12-31T02:27:50.273Z,0
2017-12-31T02:28:30.817Z,0
2017-12-31T02:29:11.371Z,0
2017-12-31T02:29:51.930Z,0
2017-12-31T02:30:32.491Z,0
2017-12-31T02:31:13.151Z,0
2017-12-31T02:31:53.641Z,0
2017-12-31T02:32:34.233Z,0
2017-12-31T02:33:14.909Z,0
2017-12-31T02:33:55.807Z,0
2017-12-31T02:34:36.492Z,0
2017-12-31T02:35:17.120Z,0
2017-12-31T02:35:57.710Z,0
2017-12-31T02:36:38.237Z,0
2017-12-31T02:37:18.843Z,0
2017-12-31T02:37:59.333Z,0
2017-12-31T02:38:39.863Z,0
2017-12-31T02:39:20.454Z,0
2017-12-31T02:40:01.004Z,0
2017-12-31T02:40:41.639Z,0
2017-12-31T02:41:22.123Z,0
2017-12-31T02:42:02.691Z,0
2017-12-31T02:42:43.197Z,0
2017-12-31T02:43:23.720Z,0
2017-12-31T02:44:04.277Z,0
2017-12-31T02:44:44.814Z,0
2017-12-31T02:45:25.341Z,0
2017-12-31T02:46:05.944Z,0
2017-12-31T02:46:46.483Z,0
2017-12-31T02:47:27.039Z,0
2017-12-31T02:48:07.616Z,0
2017-12-31T02:48:48.142Z,0
2017-12-31T02:49:28.673Z,0
2017-12-31T02:50:09.863Z,0
2017-12-31T02:50:50.327Z,0
2017-12-31T02:51:30.846Z,0
2017-12-31T02:52:11.521Z,0
2017-12-31T02:52:52.065Z,0
2017-12-31T02:53:32.597Z,0
2017-12-31T02:54:13.148Z,0
2017-12-31T02:54:53.745Z,0
2017-12-31T02:55:34.280Z,0
2017-12-31T02:56:14.833Z,0
2017-12-31T02:56:55.380Z,0
2017-12-31T02:57:35.938Z,0
2017-12-31T02:58:16.466Z,0
2017-12-31T02:58:57.003Z,0
2017-12-31T02:59:37.548Z,0
2017-12-31T03:00:18.065Z,0
2017-12-31T03:00:58.603Z,0
2017-12-31T03:01:39.162Z,0
2017-12-31T03:02:19.733Z,0
2017-12-31T03:03:00.290Z,0
2017-12-31T03:03:40.856Z,0
2017-12-31T03:04:21.450Z,0
2017-12-31T03:05:02.005Z,0
2017-12-31T03:05:42.560Z,0
2017-12-31T03:06:23.120Z,0
2017-12-31T03:07:03.681Z,0
2017-12-31T03:07:44.220Z,0
2017-12-31T03:08:24.759Z,0
2017-12-31T03:09:05.318Z,0
2017-12-31T03:09:45.845Z,0
2017-12-31T03:10:26.377Z,0
2017-12-31T03:11:06.934Z,0
2017-12-31T03:11:47.467Z,0
2017-12-31T03:12:28.004Z,0
2017-12-31T03:13:08.534Z,0
2017-12-31T03:13:49.045Z,0
2017-12-31T03:14:29.595Z,0
2017-12-31T03:15:10.155Z,0
2017-12-31T03:15:50.724Z,0
2017-12-31T03:16:31.268Z,0
2017-12-31T03:17:11.815Z,0
2017-12-31T03:17:52.372Z,0
2017-12-31T03:18:32.918Z,0
2017-12-31T03:19:13.444Z,0
2017-12-31T03:19:53.995Z,0
2017-12-31T03:20:34.516Z,0
2017-12-31T03:21:15.063Z,0
2017-12-31T03:21:56.394Z,0
2017-12-31T03:22:36.939Z,0
2017-12-31T03:23:17.477Z,0
2017-12-31T03:23:58.039Z,0
2017-12-31T03:24:38.589Z,0
2017-12-31T03:25:19.157Z,0
2017-12-31T03:25:59.697Z,0
2017-12-31T03:26:40.259Z,0
2017-12-31T03:27:20.805Z,0
2017-12-31T03:28:01.383Z,0
2017-12-31T03:28:41.900Z,0
2017-12-31T03:29:22.463Z,0
2017-12-31T03:30:03.024Z,0
2017-12-31T03:30:43.546Z,0
2017-12-31T03:31:24.105Z,0
2017-12-31T03:32:04.647Z,0
2017-12-31T03:32:45.186Z,0
2017-12-31T03:33:25.744Z,0
2017-12-31T03:34:06.310Z,0
2017-12-31T03:34:46.857Z,0
2017-12-31T03:35:27.410Z,0
2017-12-31T03:36:07.922Z,0
2017-12-31T03:36:48.492Z,0
2017-12-31T03:37:29.042Z,0
2017-12-31T03:38:09.598Z,0
2017-12-31T03:38:50.156Z,0
2017-12-31T03:39:30.670Z,0
2017-12-31T03:40:11.232Z,0
2017-12-31T03:40:51.783Z,0
2017-12-31T03:41:32.333Z,0
2017-12-31T03:42:12.874Z,0
2017-12-31T03:42:53.436Z,0
2017-12-31T03:43:34.004Z,0
2017-12-31T03:44:14.537Z,0
2017-12-31T03:44:55.068Z,0
2017-12-31T03:45:35.630Z,0
2017-12-31T03:46:16.184Z,0
2017-12-31T03:46:56.767Z,0
2017-12-31T03:47:37.334Z,0
2017-12-31T03:48:17.897Z,0
2017-12-31T03:48:58.434Z,0
2017-12-31T03:49:39.003Z,0
2017-12-31T03:50:19.556Z,0
2017-12-31T03:51:00.094Z,0
2017-12-31T03:51:40.658Z,0
2017-12-31T03:52:21.211Z,0
2017-12-31T03:53:01.756Z,0
2017-12-31T03:53:42.318Z,0
2017-12-31T03:54:22.857Z,0
2017-12-31T03:55:03.421Z,0
2017-12-31T03:55:43.986Z,0
2017-12-31T03:56:24.548Z,0
2017-12-31T03:57:05.112Z,0
2017-12-31T03:57:45.659Z,0
2017-12-31T03:58:26.222Z,0
2017-12-31T03:59:06.763Z,0
2017-12-31T03:59:47.324Z,0
2017-12-31T04:00:27.899Z,0
2017-12-31T04:01:08.437Z,0
2017-12-31T04:01:48.994Z,0
2017-12-31T04:02:29.516Z,0
2017-12-31T04:03:10.060Z,0
2017-12-31T04:03:50.618Z,0
2017-12-31T04:04:31.170Z,0
2017-12-31T04:05:11.716Z,0
2017-12-31T04:05:52.276Z,0
2017-12-31T04:06:32.822Z,0
2017-12-31T04:07:13.363Z,0
2017-12-31T04:07:53.906Z,0
2017-12-31T04:08:34.464Z,0
2017-12-31T04:09:15.020Z,0
2017-12-31T04:09:55.579Z,0
2017-12-31T04:10:36.127Z,0
2017-12-31T04:11:16.671Z,0
2017-12-31T04:11:57.214Z,0
2017-12-31T04:12:37.753Z,0
2017-12-31T04:13:18.311Z,0
2017-12-31T04:13:58.851Z,0
2017-12-31T04:14:39.412Z,0
2017-12-31T04:15:19.952Z,0
2017-12-31T04:16:00.518Z,0
2017-12-31T04:16:41.081Z,0
2017-12-31T04:17:21.637Z,0
2017-12-31T04:18:02.187Z,0
2017-12-31T04:18:42.728Z,0
2017-12-31T04:19:23.289Z,0
2017-12-31T04:20:03.822Z,0
2017-12-31T04:20:44.344Z,0
2017-12-31T04:21:24.921Z,0
2017-12-31T04:22:05.528Z,0
2017-12-31T04:22:46.134Z,0
2017-12-31T04:23:26.627Z,0
2017-12-31T04:24:07.140Z,0
2017-12-31T04:24:47.689Z,0
2017-12-31T04:25:28.219Z,0
2017-12-31T04:26:08.787Z,0
2017-12-31T04:26:49.357Z,0
2017-12-31T04:27:29.879Z,0
2017-12-31T04:28:10.416Z,0
2017-12-31T04:28:50.972Z,0
2017-12-31T04:29:31.521Z,0
2017-12-31T04:30:12.048Z,0
2017-12-31T04:30:52.587Z,0
2017-12-31T04:31:33.131Z,0
2017-12-31T04:32:13.664Z,0
2017-12-31T04:32:54.218Z,0
2017-12-31T04:33:34.784Z,0
2017-12-31T04:34:15.323Z,0
2017-12-31T04:34:55.865Z,0
2017-12-31T04:35:36.413Z,0
2017-12-31T04:36:16.975Z,0
2017-12-31T04:36:57.516Z,0
2017-12-31T04:37:38.105Z,0
2017-12-31T04:38:18.656Z,0
2017-12-31T04:38:59.190Z,0
2017-12-31T04:39:39.749Z,0
2017-12-31T04:40:20.326Z,0
2017-12-31T04:41:00.883Z,0
2017-12-31T04:41:41.400Z,0
2017-12-31T04:42:21.969Z,0
2017-12-31T04:43:02.513Z,0
2017-12-31T04:43:43.048Z,0
2017-12-31T04:44:23.601Z,0
2017-12-31T04:45:04.167Z,0
2017-12-31T04:45:44.777Z,0
2017-12-31T04:46:25.333Z,0
2017-12-31T04:47:05.859Z,0
2017-12-31T04:47:46.427Z,0
2017-12-31T04:48:26.958Z,0
2017-12-31T04:49:07.469Z,0
2017-12-31T04:49:48.038Z,0
2017-12-31T04:50:28.549Z,0
2017-12-31T04:51:09.103Z,0
2017-12-31T04:51:49.700Z,0
2017-12-31T04:52:30.196Z,0
2017-12-31T04:53:10.778Z,0
2017-12-31T04:53:51.241Z,0
2017-12-31T04:54:31.833Z,0
2017-12-31T04:55:12.347Z,0
2017-12-31T04:55:52.910Z,0
2017-12-31T04:56:33.435Z,0
2017-12-31T04:57:13.982Z,0
2017-12-31T04:57:54.630Z,0
2017-12-31T04:58:35.195Z,0
2017-12-31T04:59:15.699Z,0
2017-12-31T04:59:56.252Z,0
2017-12-31T05:00:36.829Z,0
2017-12-31T05:01:17.313Z,0
2017-12-31T05:01:57.813Z,0
2017-12-31T05:02:38.398Z,0
2017-12-31T05:03:18.959Z,0
2017-12-31T05:03:59.492Z,0
2017-12-31T05:04:40.026Z,0
2017-12-31T05:05:20.542Z,0
2017-12-31T05:06:01.101Z,0
2017-12-31T05:06:41.650Z,0
2017-12-31T05:07:22.191Z,0
2017-12-31T05:08:02.759Z,0
2017-12-31T05:08:43.304Z,0
2017-12-31T05:09:23.853Z,0
2017-12-31T05:10:04.364Z,0
2017-12-31T05:10:44.946Z,0
2017-12-31T05:11:25.507Z,0
2017-12-31T05:12:06.067Z,0
2017-12-31T05:12:46.591Z,0
2017-12-31T05:13:27.210Z,0
2017-12-31T05:14:07.717Z,0
2017-12-31T05:14:48.230Z,0
2017-12-31T05:15:28.796Z,0
2017-12-31T05:16:09.356Z,0
2017-12-31T05:16:49.926Z,0
2017-12-31T05:17:30.459Z,0
2017-12-31T05:18:11.016Z,0
2017-12-31T05:18:51.580Z,0
2017-12-31T05:19:32.139Z,0
2017-12-31T05:20:12.660Z,0
2017-12-31T05:20:53.214Z,0
2017-12-31T05:21:33.746Z,0
2017-12-31T05:22:14.342Z,0
2017-12-31T05:22:54.921Z,0
2017-12-31T05:23:35.414Z,0
2017-12-31T05:24:15.990Z,0
2017-12-31T05:24:56.582Z,0
2017-12-31T05:25:37.148Z,0
2017-12-31T05:26:17.771Z,0
2017-12-31T05:26:58.321Z,0
2017-12-31T05:27:38.910Z,0
2017-12-31T05:28:19.386Z,0
2017-12-31T05:28:59.965Z,0
2017-12-31T05:29:40.511Z,0
2017-12-31T05:30:21.017Z,0
2017-12-31T05:31:01.591Z,0
2017-12-31T05:31:42.146Z,0
2017-12-31T05:32:22.672Z,0
2017-12-31T05:33:03.192Z,0
2017-12-31T05:33:43.792Z,0
2017-12-31T05:34:24.239Z,0
2017-12-31T05:35:04.941Z,0
2017-12-31T05:35:45.449Z,0
2017-12-31T05:36:26.141Z,0
2017-12-31T05:37:06.732Z,0
2017-12-31T05:37:47.291Z,0
2017-12-31T05:38:27.829Z,0
2017-12-31T05:39:08.403Z,0
2017-12-31T05:39:48.922Z,0
2017-12-31T05:40:29.446Z,0
2017-12-31T05:41:09.976Z,0
2017-12-31T05:41:50.538Z,0
2017-12-31T05:42:31.095Z,0
2017-12-31T05:43:11.648Z,0
2017-12-31T05:43:52.210Z,0
2017-12-31T05:44:32.721Z,0
2017-12-31T05:45:13.289Z,0
2017-12-31T05:45:53.802Z,0
2017-12-31T05:46:34.349Z,0
2017-12-31T05:47:15.821Z,0
2017-12-31T05:47:56.382Z,0
2017-12-31T05:48:36.927Z,0
2017-12-31T05:49:17.491Z,0
2017-12-31T05:49:58.049Z,0
2017-12-31T05:50:38.601Z,0
2017-12-31T05:51:19.170Z,0
2017-12-31T05:51:59.690Z,0
2017-12-31T05:52:40.248Z,0
2017-12-31T05:53:20.780Z,0
2017-12-31T05:54:01.324Z,0
2017-12-31T05:54:41.877Z,0
2017-12-31T05:55:22.426Z,0
2017-12-31T05:56:02.997Z,0
2017-12-31T05:56:43.557Z,0
2017-12-31T05:57:24.107Z,0
2017-12-31T05:58:04.720Z,0
2017-12-31T05:58:45.204Z,0
2017-12-31T05:59:25.756Z,0
2017-12-31T06:00:06.291Z,0
2017-12-31T06:00:46.826Z,0
2017-12-31T06:01:27.395Z,0
2017-12-31T06:02:07.951Z,0
2017-12-31T06:02:48.525Z,0
2017-12-31T06:03:29.054Z,0
2017-12-31T06:04:09.645Z,0
2017-12-31T06:04:50.160Z,0
2017-12-31T06:05:30.706Z,0
2017-12-31T06:06:11.258Z,0
2017-12-31T06:06:51.808Z,0
2017-12-31T06:07:32.340Z,0
2017-12-31T06:08:12.913Z,0
2017-12-31T06:08:53.441Z,0
2017-12-31T06:09:33.995Z,0
2017-12-31T06:10:14.561Z,0
2017-12-31T06:10:55.104Z,0
2017-12-31T06:11:35.666Z,0
2017-12-31T06:12:16.219Z,0
2017-12-31T06:12:56.757Z,0
2017-12-31T06:13:37.327Z,0
2017-12-31T06:14:17.851Z,0
2017-12-31T06:14:58.420Z,0
2017-12-31T06:15:38.957Z,0
2017-12-31T06:16:19.508Z,0
2017-12-31T06:17:00.046Z,0
2017-12-31T06:17:40.617Z,0
2017-12-31T06:18:21.177Z,0
2017-12-31T06:19:01.692Z,0
2017-12-31T06:19:42.248Z,0
2017-12-31T06:20:22.798Z,0
2017-12-31T06:21:03.353Z,0
2017-12-31T06:21:43.902Z,0
2017-12-31T06:22:24.449Z,0
2017-12-31T06:23:05.009Z,0
2017-12-31T06:23:45.564Z,0
2017-12-31T06:24:26.096Z,0
2017-12-31T06:25:06.665Z,0
2017-12-31T06:25:47.196Z,0
2017-12-31T06:26:27.755Z,0
2017-12-31T06:27:08.296Z,0
2017-12-31T06:27:48.867Z,0
2017-12-31T06:28:29.406Z,0
2017-12-31T06:29:09.982Z,0
2017-12-31T06:29:50.511Z,0
2017-12-31T06:30:31.075Z,0
2017-12-31T06:31:11.613Z,0
2017-12-31T06:31:52.146Z,0
2017-12-31T06:32:32.698Z,0
2017-12-31T06:33:13.265Z,0
2017-12-31T06:33:53.818Z,0
2017-12-31T06:34:34.376Z,0
2017-12-31T06:35:14.926Z,0
2017-12-31T06:35:55.478Z,0
2017-12-31T06:36:36.020Z,0
2017-12-31T06:37:16.575Z,0
2017-12-31T06:37:57.117Z,0
2017-12-31T06:38:37.683Z,0
2017-12-31T06:39:18.226Z,0
2017-12-31T06:39:58.785Z,0
2017-12-31T06:40:39.342Z,0
2017-12-31T06:41:19.893Z,0
2017-12-31T06:42:00.431Z,0
2017-12-31T06:42:40.995Z,0
2017-12-31T06:43:21.535Z,0
2017-12-31T06:44:02.074Z,0
2017-12-31T06:44:42.646Z,0
2017-12-31T06:45:23.183Z,0
2017-12-31T06:46:03.722Z,0
2017-12-31T06:46:44.282Z,0
2017-12-31T06:47:24.833Z,0
2017-12-31T06:48:05.343Z,4
2017-12-31T06:48:45.912Z,4
2017-12-31T06:49:26.469Z,4
2017-12-31T06:50:07.030Z,0
2017-12-31T06:50:47.590Z,0
2017-12-31T06:51:28.168Z,0
2017-12-31T06:52:08.741Z,4
2017-12-31T06:52:49.265Z,4
2017-12-31T06:53:29.822Z,4
2017-12-31T06:54:10.386Z,4
2017-12-31T06:54:50.925Z,4
2017-12-31T06:55:31.474Z,4
2017-12-31T06:56:12.018Z,8
2017-12-31T06:56:52.567Z,4
2017-12-31T06:57:33.117Z,8
2017-12-31T06:58:13.660Z,8
2017-12-31T06:58:54.223Z,8
2017-12-31T06:59:34.766Z,8
2017-12-31T07:00:15.323Z,8
2017-12-31T07:00:55.901Z,12
2017-12-31T07:01:36.454Z,16
2017-12-31T07:02:17.038Z,16
2017-12-31T07:02:57.552Z,16
2017-12-31T07:03:38.082Z,16
2017-12-31T07:04:18.639Z,16
2017-12-31T07:04:59.185Z,16
2017-12-31T07:05:39.728Z,16
2017-12-31T07:06:20.282Z,12
2017-12-31T07:07:00.833Z,16
2017-12-31T07:07:41.422Z,16
2017-12-31T07:08:22.006Z,20
2017-12-31T07:09:02.524Z,20
2017-12-31T07:09:43.065Z,20
2017-12-31T07:10:23.629Z,28
2017-12-31T07:11:04.185Z,32
2017-12-31T07:11:44.727Z,40
2017-12-31T07:12:25.311Z,40
2017-12-31T07:13:05.858Z,48
2017-12-31T07:13:46.386Z,52
2017-12-31T07:14:26.935Z,60
2017-12-31T07:15:07.459Z,72
2017-12-31T07:15:48.016Z,76
2017-12-31T07:16:28.540Z,84
2017-12-31T07:17:09.120Z,92
2017-12-31T07:17:49.669Z,96
2017-12-31T07:18:30.239Z,104
2017-12-31T07:19:10.787Z,108
2017-12-31T07:19:51.344Z,108
2017-12-31T07:20:31.870Z,112
2017-12-31T07:21:12.426Z,112
2017-12-31T07:21:52.980Z,116
2017-12-31T07:22:33.549Z,120
2017-12-31T07:23:14.106Z,112
2017-12-31T07:23:54.656Z,108
2017-12-31T07:24:35.213Z,108
2017-12-31T07:25:15.773Z,116
2017-12-31T07:25:56.317Z,132
2017-12-31T07:26:36.897Z,144
2017-12-31T07:27:17.408Z,148
2017-12-31T07:27:57.956Z,160
2017-12-31T07:28:38.529Z,172
2017-12-31T07:29:19.071Z,180
2017-12-31T07:29:59.625Z,192
2017-12-31T07:30:40.189Z,200
2017-12-31T07:31:20.724Z,204
2017-12-31T07:32:01.284Z,204
2017-12-31T07:32:41.828Z,212
2017-12-31T07:33:22.368Z,204
2017-12-31T07:34:02.902Z,188
2017-12-31T07:34:43.449Z,200
2017-12-31T07:35:23.995Z,208
2017-12-31T07:36:04.534Z,212
2017-12-31T07:36:45.095Z,208
2017-12-31T07:37:26.391Z,208
2017-12-31T07:38:06.966Z,220
2017-12-31T07:38:47.513Z,224
2017-12-31T07:39:28.042Z,220
2017-12-31T07:40:08.754Z,220
2017-12-31T07:40:49.340Z,244
2017-12-31T07:41:29.886Z,252
2017-12-31T07:42:10.422Z,252
2017-12-31T07:42:50.978Z,240
2017-12-31T07:43:31.521Z,240
2017-12-31T07:44:12.064Z,244
2017-12-31T07:44:52.602Z,236
2017-12-31T07:45:33.183Z,228
2017-12-31T07:46:13.729Z,220
2017-12-31T07:46:54.255Z,216
2017-12-31T07:47:34.806Z,204
2017-12-31T07:48:15.378Z,184
2017-12-31T07:48:55.907Z,184
2017-12-31T07:49:36.503Z,188
2017-12-31T07:50:17.059Z,204
2017-12-31T07:50:57.619Z,212
2017-12-31T07:51:38.142Z,224
2017-12-31T07:52:18.683Z,228
2017-12-31T07:52:59.240Z,228
2017-12-31T07:53:39.776Z,244
2017-12-31T07:54:20.324Z,256
2017-12-31T07:55:01.224Z,268
2017-12-31T07:55:41.513Z,308
2017-12-31T07:56:22.079Z,332
2017-12-31T07:57:02.643Z,356
2017-12-31T07:57:43.845Z,388
2017-12-31T07:58:24.394Z,428
2017-12-31T07:59:04.944Z,456
2017-12-31T07:59:45.511Z,492
2017-12-31T08:00:26.041Z,516
2017-12-31T08:01:06.635Z,484
2017-12-31T08:01:47.194Z,500
2017-12-31T08:02:27.768Z,532
2017-12-31T08:03:08.376Z,560
2017-12-31T08:03:48.890Z,536
2017-12-31T08:04:29.442Z,552
2017-12-31T08:05:10.005Z,616
2017-12-31T08:05:51.020Z,716
2017-12-31T08:06:31.580Z,816
2017-12-31T08:07:12.968Z,892
2017-12-31T08:07:52.678Z,964
2017-12-31T08:08:33.229Z,1032
2017-12-31T08:09:13.766Z,1104
2017-12-31T08:09:54.312Z,1144
2017-12-31T08:10:34.904Z,1176
2017-12-31T08:11:15.370Z,1200
2017-12-31T08:11:55.930Z,1232
2017-12-31T08:12:36.453Z,1304
2017-12-31T08:13:17.031Z,1352
2017-12-31T08:13:57.518Z,1388
2017-12-31T08:14:38.075Z,1448
2017-12-31T08:15:18.640Z,1492
2017-12-31T08:15:59.188Z,1520
2017-12-31T08:16:39.746Z,1564
2017-12-31T08:17:20.296Z,1604
2017-12-31T08:18:00.873Z,1680
2017-12-31T08:18:41.470Z,1736
2017-12-31T08:19:22.024Z,1784
2017-12-31T08:20:02.591Z,1852
2017-12-31T08:20:43.148Z,1940
2017-12-31T08:21:23.703Z,1996
2017-12-31T08:22:04.266Z,2032
2017-12-31T08:22:45.371Z,2060
2017-12-31T08:23:25.935Z,2032
2017-12-31T08:24:06.464Z,2024
2017-12-31T08:24:47.018Z,2008
2017-12-31T08:25:27.548Z,2016
2017-12-31T08:26:08.085Z,2000
2017-12-31T08:26:48.612Z,1960
2017-12-31T08:27:29.173Z,1928
2017-12-31T08:28:09.726Z,1912
2017-12-31T08:28:50.753Z,1892
2017-12-31T08:29:31.269Z,1856
2017-12-31T08:30:11.870Z,1824
2017-12-31T08:30:52.493Z,1768
2017-12-31T08:31:32.945Z,1716
2017-12-31T08:32:13.485Z,1672
2017-12-31T08:32:54.024Z,1620
2017-12-31T08:33:34.546Z,1568
2017-12-31T08:34:15.092Z,1556
2017-12-31T08:34:55.636Z,1528
2017-12-31T08:35:36.183Z,1436
2017-12-31T08:36:16.726Z,1376
2017-12-31T08:36:57.270Z,1304
2017-12-31T08:37:37.842Z,1236
2017-12-31T08:38:18.388Z,1172
2017-12-31T08:38:58.973Z,1088
2017-12-31T08:39:39.547Z,1040
2017-12-31T08:40:20.119Z,1028
2017-12-31T08:41:00.667Z,1024
2017-12-31T08:41:41.226Z,1020
2017-12-31T08:42:21.771Z,1004
2017-12-31T08:43:02.354Z,1016
2017-12-31T08:43:42.907Z,1028
2017-12-31T08:44:23.413Z,1064
2017-12-31T08:45:03.963Z,1096
2017-12-31T08:45:44.504Z,1124
2017-12-31T08:46:25.064Z,1132
2017-12-31T08:47:05.654Z,1100
2017-12-31T08:47:46.197Z,1056
2017-12-31T08:48:26.762Z,1040
2017-12-31T08:49:07.345Z,996
2017-12-31T08:49:47.897Z,936
2017-12-31T08:50:28.476Z,880
2017-12-31T08:51:08.995Z,844
2017-12-31T08:51:49.559Z,852
2017-12-31T08:52:30.112Z,880
2017-12-31T08:53:10.652Z,916
2017-12-31T08:53:51.202Z,944
2017-12-31T08:54:31.765Z,968
2017-12-31T08:55:12.304Z,964
2017-12-31T08:55:52.868Z,984
2017-12-31T08:56:33.404Z,1024
2017-12-31T08:57:13.957Z,1068
2017-12-31T08:57:54.605Z,1128
2017-12-31T08:58:35.183Z,1176
2017-12-31T08:59:15.722Z,1216
2017-12-31T08:59:56.867Z,1284
2017-12-31T09:00:37.428Z,1348
2017-12-31T09:01:17.967Z,1408
2017-12-31T09:01:58.520Z,1420
2017-12-31T09:02:39.070Z,1388
2017-12-31T09:03:19.622Z,1244
2017-12-31T09:04:00.179Z,1076
2017-12-31T09:04:40.751Z,988
2017-12-31T09:05:21.316Z,972
2017-12-31T09:06:01.892Z,1088
2017-12-31T09:06:42.406Z,1228
2017-12-31T09:07:22.992Z,1292
2017-12-31T09:08:03.588Z,1276
2017-12-31T09:08:44.112Z,1268
2017-12-31T09:09:24.657Z,1248
2017-12-31T09:10:05.203Z,1224
2017-12-31T09:10:45.748Z,1212
2017-12-31T09:11:26.287Z,1232
2017-12-31T09:12:06.791Z,1260
2017-12-31T09:12:47.330Z,1344
2017-12-31T09:13:27.863Z,1384
2017-12-31T09:14:08.434Z,1432
2017-12-31T09:14:48.981Z,1420
2017-12-31T09:15:29.511Z,1420
2017-12-31T09:16:10.047Z,1448
2017-12-31T09:16:50.607Z,1452
2017-12-31T09:17:31.140Z,1476
2017-12-31T09:18:11.704Z,1496
2017-12-31T09:18:52.245Z,1468
2017-12-31T09:19:32.828Z,1448
2017-12-31T09:20:13.361Z,1436
2017-12-31T09:20:53.924Z,1396
2017-12-31T09:21:34.464Z,1412
2017-12-31T09:22:15.030Z,1428
2017-12-31T09:22:55.627Z,1364
2017-12-31T09:23:36.294Z,1308
2017-12-31T09:24:16.980Z,1252
2017-12-31T09:24:57.431Z,1188
2017-12-31T09:25:37.971Z,1176
2017-12-31T09:26:18.538Z,1228
2017-12-31T09:26:59.084Z,1360
2017-12-31T09:27:39.638Z,1468
2017-12-31T09:28:20.188Z,1544
2017-12-31T09:29:00.760Z,1588
2017-12-31T09:29:41.314Z,1640
2017-12-31T09:30:21.872Z,1704
2017-12-31T09:31:02.449Z,1672
2017-12-31T09:31:42.999Z,1636
2017-12-31T09:32:23.571Z,1592
2017-12-31T09:33:04.109Z,1548
2017-12-31T09:33:44.806Z,1500
2017-12-31T09:34:25.494Z,1500
2017-12-31T09:35:05.967Z,1472
2017-12-31T09:35:46.553Z,1452
2017-12-31T09:36:27.192Z,1396
2017-12-31T09:37:07.710Z,1368
2017-12-31T09:37:48.312Z,1328
2017-12-31T09:38:28.913Z,1300
2017-12-31T09:39:09.497Z,1332
2017-12-31T09:39:50.107Z,1416
2017-12-31T09:40:30.753Z,1524
2017-12-31T09:41:11.308Z,1656
2017-12-31T09:41:51.843Z,1756
2017-12-31T09:42:32.417Z,1784
2017-12-31T09:43:13.188Z,1696
2017-12-31T09:43:53.717Z,1696
2017-12-31T09:44:34.247Z,1760
2017-12-31T09:45:14.897Z,1864